Time;durP1;ratioP1;P1;durP2;ratioP2;P2;SDS_P1;SDS_P2;PMS_P1;PMS_P2;Temp;Humidity;BMP_temperature;BMP_pressure;BME280_temperature;BME280_humidity;BME280_pressure;Samples;Min_cycle;Max_cycle;Signal;HPM_P1;HPM_P2
2022/11/12 00:00:20;;;;;;;0.32;0.32;;;6.10;99.90;;;;;;5052440;28;20223;-68
2022/11/12 00:02:45;;;;;;;0.00;0.00;;;6.10;99.90;;;;;;5052579;28;20195;-68
2022/11/12 00:05:11;;;;;;;0.00;0.00;;;6.10;99.90;;;;;;5052903;28;20216;-67
2022/11/12 00:07:36;;;;;;;0.00;0.00;;;6.10;99.90;;;;;;5052824;28;20713;-67
2022/11/12 00:10:03;;;;;;;0.00;0.00;;;6.10;99.90;;;;;;5035153;28;20188;-67
2022/11/12 00:12:29;;;;;;;0.03;0.03;;;6.00;99.90;;;;;;5052422;28;20178;-68
2022/11/12 00:14:54;;;;;;;0.20;0.20;;;6.00;99.90;;;;;;5052454;28;20185;-68
2022/11/12 00:17:20;;;;;;;0.00;0.00;;;6.00;99.90;;;;;;5052536;28;20288;-67
2022/11/12 00:19:45;;;;;;;0.30;0.20;;;6.00;99.90;;;;;;5052071;28;20227;-68
2022/11/12 00:22:11;;;;;;;0.00;0.00;;;5.90;99.90;;;;;;5052368;28;20664;-68
2022/11/12 00:24:37;;;;;;;0.32;0.32;;;5.90;99.90;;;;;;5052124;28;20174;-68
2022/11/12 00:27:02;;;;;;;0.00;0.00;;;5.90;99.90;;;;;;5052296;28;20177;-68
2022/11/12 00:29:28;;;;;;;0.00;0.00;;;5.90;99.90;;;;;;5052136;28;20177;-67
2022/11/12 00:31:53;;;;;;;0.00;0.00;;;5.90;99.90;;;;;;5052070;28;20680;-67
2022/11/12 00:34:19;;;;;;;0.00;0.00;;;6.00;99.90;;;;;;5052094;28;20169;-68
2022/11/12 00:36:44;;;;;;;0.15;0.15;;;5.90;99.90;;;;;;5052263;28;20205;-67
2022/11/12 00:39:10;;;;;;;0.15;0.13;;;6.00;99.90;;;;;;5052185;28;20181;-67
2022/11/12 00:41:35;;;;;;;0.00;0.00;;;6.00;99.90;;;;;;5052064;28;20185;-67
2022/11/12 00:44:01;;;;;;;0.08;0.08;;;6.00;99.90;;;;;;5052046;28;20188;-67
2022/11/12 00:46:26;;;;;;;0.00;0.00;;;6.00;99.90;;;;;;5052022;28;20176;-68
2022/11/12 00:48:52;;;;;;;0.00;0.00;;;6.00;99.90;;;;;;5052132;28;20264;-68
2022/11/12 00:51:17;;;;;;;0.13;0.13;;;6.00;99.90;;;;;;5051427;28;20205;-68
2022/11/12 00:53:47;;;;;;;0.10;0.10;;;6.10;99.90;;;;;;5051892;28;20300;-68
2022/11/12 00:56:13;;;;;;;0.10;0.10;;;6.10;99.90;;;;;;5051624;28;20247;-68
2022/11/12 00:58:38;;;;;;;0.00;0.00;;;6.10;99.90;;;;;;5051443;28;20644;-68
2022/11/12 01:01:12;;;;;;;0.00;0.00;;;6.10;99.90;;;;;;5051659;28;20185;-68
2022/11/12 01:03:39;;;;;;;0.50;0.30;;;6.10;99.90;;;;;;5051611;28;20272;-67
2022/11/12 01:06:17;;;;;;;0.00;0.00;;;6.10;99.90;;;;;;5051926;28;20182;-67
2022/11/12 01:08:43;;;;;;;0.00;0.00;;;6.10;99.90;;;;;;5051936;28;20217;-68
2022/11/12 01:11:15;;;;;;;0.28;0.28;;;6.10;99.90;;;;;;5051912;28;20679;-67
2022/11/12 01:13:44;;;;;;;2.67;1.27;;;6.10;99.90;;;;;;5051751;28;20182;-68
2022/11/12 01:16:14;;;;;;;0.63;0.63;;;6.10;99.90;;;;;;5051152;28;20707;-68
2022/11/12 01:18:41;;;;;;;0.40;0.40;;;6.10;99.90;;;;;;5051505;28;20181;-67
2022/11/12 01:21:06;;;;;;;0.38;0.38;;;6.10;99.90;;;;;;5051264;28;20619;-68
2022/11/12 01:23:34;;;;;;;0.25;0.25;;;6.10;99.90;;;;;;5051403;28;20209;-68
2022/11/12 01:26:09;;;;;;;0.60;0.60;;;6.10;99.90;;;;;;5050608;28;20644;-68
2022/11/12 01:28:35;;;;;;;0.65;0.65;;;6.10;99.90;;;;;;5051152;28;20200;-68
2022/11/12 01:31:16;;;;;;;0.00;0.00;;;6.10;99.90;;;;;;5051536;28;20655;-68
2022/11/12 01:33:43;;;;;;;0.00;0.00;;;6.10;99.90;;;;;;5051107;28;20189;-67
2022/11/12 01:36:09;;;;;;;0.00;0.00;;;6.10;99.90;;;;;;5050894;28;20213;-68
2022/11/12 01:38:36;;;;;;;0.00;0.00;;;6.10;99.90;;;;;;5051468;28;20174;-68
2022/11/12 01:41:06;;;;;;;0.00;0.00;;;6.00;99.90;;;;;;5051273;28;20571;-67
2022/11/12 01:43:31;;;;;;;0.00;0.00;;;5.90;99.90;;;;;;5051572;28;20190;-68
2022/11/12 01:46:00;;;;;;;0.10;0.10;;;5.90;99.90;;;;;;5051323;28;20260;-68
2022/11/12 01:48:33;;;;;;;0.00;0.00;;;5.90;99.90;;;;;;5051390;28;20173;-67
2022/11/12 01:51:02;;;;;;;0.10;0.03;;;5.80;99.90;;;;;;5051451;28;20225;-68
2022/11/12 01:53:31;;;;;;;0.00;0.00;;;5.80;99.90;;;;;;5051322;28;20192;-68
2022/11/12 01:55:58;;;;;;;0.10;0.10;;;5.80;99.90;;;;;;5051499;28;20676;-68
2022/11/12 01:58:28;;;;;;;0.00;0.00;;;5.80;99.90;;;;;;5051478;28;20190;-68
2022/11/12 02:00:54;;;;;;;0.00;0.00;;;5.80;99.90;;;;;;5038013;28;20193;-68
2022/11/12 02:03:22;;;;;;;0.00;0.00;;;5.80;99.90;;;;;;5054536;28;20187;-68
2022/11/12 02:05:53;;;;;;;0.00;0.00;;;5.80;99.90;;;;;;5055290;28;20187;-69
2022/11/12 02:08:20;;;;;;;0.00;0.00;;;5.80;99.90;;;;;;5054806;28;20247;-68
2022/11/12 02:10:46;;;;;;;0.00;0.00;;;5.80;99.90;;;;;;5054977;28;20177;-69
2022/11/12 02:15:57;;;;;;;0.10;0.10;;;5.80;99.90;;;;;;5054881;28;20228;-68
2022/11/12 02:18:22;;;;;;;0.10;0.10;;;5.80;99.90;;;;;;5054970;28;20221;-68
2022/11/12 02:20:56;;;;;;;0.10;0.10;;;5.80;99.90;;;;;;5054762;28;20217;-69
2022/11/12 02:23:22;;;;;;;1.38;0.40;;;5.70;99.90;;;;;;5054745;28;20187;-68
2022/11/12 02:25:47;;;;;;;0.00;0.00;;;5.70;99.90;;;;;;5054649;28;20173;-69
2022/11/12 02:28:14;;;;;;;0.05;0.05;;;5.70;99.90;;;;;;5054799;28;20209;-68
2022/11/12 02:30:46;;;;;;;0.00;0.00;;;5.70;99.90;;;;;;5054585;28;20247;-69
2022/11/12 02:33:12;;;;;;;0.00;0.00;;;5.70;99.90;;;;;;5054689;28;20199;-69
2022/11/12 02:35:38;;;;;;;0.05;0.05;;;5.60;99.90;;;;;;5054544;28;20260;-69
2022/11/12 02:38:04;;;;;;;0.00;0.00;;;5.70;99.90;;;;;;5054265;28;20675;-68
2022/11/12 02:40:30;;;;;;;0.10;0.10;;;5.70;99.90;;;;;;5052783;28;20181;-68
2022/11/12 02:42:55;;;;;;;0.10;0.10;;;5.70;99.90;;;;;;5054318;28;20589;-67
2022/11/12 02:45:21;;;;;;;0.00;0.00;;;5.70;99.90;;;;;;5050439;28;20260;-68
2022/11/12 02:47:47;;;;;;;0.15;0.15;;;5.70;99.90;;;;;;5054061;28;20185;-68
2022/11/12 02:50:13;;;;;;;0.00;0.00;;;5.60;99.90;;;;;;5054386;28;20232;-68
2022/11/12 02:52:39;;;;;;;0.00;0.00;;;5.60;99.90;;;;;;5053990;28;20208;-68
2022/11/12 02:55:06;;;;;;;0.10;0.10;;;5.50;99.90;;;;;;5054271;28;20182;-68
2022/11/12 02:57:32;;;;;;;0.00;0.00;;;5.50;99.90;;;;;;5054307;28;20298;-68
2022/11/12 02:59:57;;;;;;;0.10;0.10;;;5.50;99.90;;;;;;5053991;28;20720;-68
2022/11/12 03:02:23;;;;;;;0.30;0.30;;;5.50;99.90;;;;;;5053848;28;20649;-68
2022/11/12 03:04:48;;;;;;;0.65;0.65;;;5.50;99.90;;;;;;5052604;28;20170;-68
2022/11/12 03:07:14;;;;;;;0.00;0.00;;;5.60;99.90;;;;;;5053955;28;20540;-68
2022/11/12 03:09:39;;;;;;;0.00;0.00;;;5.60;99.90;;;;;;5054330;28;20751;-68
2022/11/12 03:12:05;;;;;;;0.00;0.00;;;5.60;99.90;;;;;;5053727;28;20224;-68
2022/11/12 03:14:31;;;;;;;0.20;0.13;;;5.50;99.90;;;;;;5053599;28;20212;-68
2022/11/12 03:16:56;;;;;;;0.13;0.13;;;5.60;99.90;;;;;;5054118;28;20205;-67
2022/11/12 03:19:22;;;;;;;0.38;0.38;;;5.50;99.90;;;;;;5053574;28;20185;-68
2022/11/12 03:21:47;;;;;;;0.40;0.40;;;5.50;99.90;;;;;;5053632;28;20185;-68
2022/11/12 03:24:13;;;;;;;0.00;0.00;;;5.40;99.90;;;;;;5053943;28;20209;-68
2022/11/12 03:26:38;;;;;;;0.03;0.03;;;5.40;99.90;;;;;;5053481;28;20174;-68
2022/11/12 03:29:04;;;;;;;0.00;0.00;;;5.40;99.90;;;;;;5052532;28;20623;-68
2022/11/12 03:31:30;;;;;;;0.52;0.52;;;5.30;99.90;;;;;;5053259;28;20177;-68
2022/11/12 03:33:55;;;;;;;0.10;0.10;;;5.30;99.90;;;;;;5053538;28;20576;-67
2022/11/12 03:36:21;;;;;;;0.08;0.08;;;5.30;99.90;;;;;;5053141;28;20213;-68
2022/11/12 03:38:46;;;;;;;0.05;0.05;;;5.30;99.90;;;;;;5053170;28;20512;-68
2022/11/12 03:41:12;;;;;;;0.00;0.00;;;5.30;99.90;;;;;;5053450;28;20177;-68
2022/11/12 03:43:37;;;;;;;0.73;0.38;;;5.20;99.90;;;;;;5053186;28;20166;-69
2022/11/12 03:46:03;;;;;;;0.05;0.05;;;5.30;99.90;;;;;;5053537;28;20732;-68
2022/11/12 03:48:29;;;;;;;0.08;0.08;;;5.30;99.90;;;;;;5053347;28;20185;-68
2022/11/12 03:50:58;;;;;;;0.00;0.00;;;5.30;99.90;;;;;;5053244;28;20184;-68
2022/11/12 03:53:24;;;;;;;0.30;0.30;;;5.20;99.90;;;;;;5053303;28;20260;-68
2022/11/12 03:55:50;;;;;;;0.00;0.00;;;5.20;99.90;;;;;;5053092;28;20292;-68
2022/11/12 03:58:15;;;;;;;0.00;0.00;;;5.30;99.90;;;;;;5052840;28;20178;-68
2022/11/12 04:00:41;;;;;;;0.00;0.00;;;5.30;99.90;;;;;;5052960;28;20182;-68
2022/11/12 04:03:06;;;;;;;0.00;0.00;;;5.20;99.90;;;;;;5052741;28;20676;-68
2022/11/12 04:08:37;;;;;;;0.20;0.20;;;5.20;99.90;;;;;;5052871;28;20227;-68
2022/11/12 04:11:11;;;;;;;0.00;0.00;;;5.30;99.90;;;;;;5051111;28;20256;-68
2022/11/12 04:13:38;;;;;;;0.00;0.00;;;5.30;99.90;;;;;;5052847;28;20652;-68
2022/11/12 04:21:49;;;;;;;0.10;0.10;;;5.40;99.90;;;;;;5053052;28;20215;-68
2022/11/12 04:27:03;;;;;;;0.00;0.00;;;5.40;99.90;;;;;;5050084;28;20189;-68
2022/11/12 04:32:13;;;;;;;0.00;0.00;;;5.40;99.90;;;;;;5052450;28;20239;-67
2022/11/12 04:34:39;;;;;;;0.10;0.03;;;5.40;99.90;;;;;;5052197;28;20177;-67
2022/11/12 04:37:05;;;;;;;0.10;0.10;;;5.40;99.90;;;;;;5052275;28;20232;-67
2022/11/12 04:39:31;;;;;;;0.00;0.00;;;5.40;99.90;;;;;;5052199;28;20181;-68
2022/11/12 04:47:37;;;;;;;0.00;0.00;;;5.50;99.90;;;;;;5051559;28;20207;-67
2022/11/12 04:50:14;;;;;;;0.28;0.28;;;5.50;99.90;;;;;;5052300;28;20181;-67
2022/11/12 04:52:40;;;;;;;0.05;0.05;;;5.50;99.90;;;;;;5052124;28;20267;-67
2022/11/12 04:55:06;;;;;;;0.00;0.00;;;5.50;99.90;;;;;;5052196;28;20299;-67
2022/11/12 04:57:32;;;;;;;0.00;0.00;;;5.50;99.90;;;;;;5051434;28;20217;-67
2022/11/12 04:59:57;;;;;;;0.00;0.00;;;5.50;99.90;;;;;;5052112;28;20170;-67
2022/11/12 05:02:23;;;;;;;0.10;0.10;;;5.50;99.90;;;;;;5051688;28;20659;-67
2022/11/12 05:04:49;;;;;;;0.00;0.00;;;5.50;99.90;;;;;;5051442;28;20193;-67
2022/11/12 05:07:15;;;;;;;0.22;0.22;;;5.50;99.90;;;;;;5051862;28;20640;-67
2022/11/12 05:09:41;;;;;;;0.35;0.35;;;5.60;99.90;;;;;;5051245;28;20165;-67
2022/11/12 05:12:06;;;;;;;0.00;0.00;;;5.50;99.90;;;;;;5051705;28;20202;-67
2022/11/12 05:14:32;;;;;;;0.00;0.00;;;5.50;99.90;;;;;;5052011;28;20189;-67
2022/11/12 05:16:57;;;;;;;0.00;0.00;;;5.50;99.90;;;;;;5051713;28;20335;-68
2022/11/12 05:19:23;;;;;;;0.20;0.20;;;5.50;99.90;;;;;;5051484;28;20181;-67
2022/11/12 05:22:04;;;;;;;0.52;0.22;;;5.50;99.90;;;;;;5051464;28;20665;-67
2022/11/12 05:24:35;;;;;;;0.00;0.00;;;5.50;99.90;;;;;;5051648;28;20181;-67
2022/11/12 05:27:00;;;;;;;0.00;0.00;;;5.50;99.90;;;;;;5051575;28;20173;-68
2022/11/12 05:29:26;;;;;;;0.00;0.00;;;5.50;99.90;;;;;;5051149;28;20188;-67
2022/11/12 05:31:51;;;;;;;0.10;0.10;;;5.50;99.90;;;;;;5051274;28;20548;-68
2022/11/12 05:34:17;;;;;;;0.00;0.00;;;5.50;99.90;;;;;;5051332;28;20178;-67
2022/11/12 05:36:42;;;;;;;0.10;0.10;;;5.40;99.90;;;;;;5050486;28;20668;-67
2022/11/12 05:39:08;;;;;;;0.00;0.00;;;5.40;99.90;;;;;;5051088;28;20268;-68
2022/11/12 05:41:33;;;;;;;0.30;0.30;;;5.30;99.90;;;;;;5051030;28;20188;-67
2022/11/12 05:43:59;;;;;;;0.10;0.10;;;5.30;99.90;;;;;;5051481;28;20185;-67
2022/11/12 05:46:25;;;;;;;0.00;0.00;;;5.20;99.90;;;;;;5051660;28;20178;-67
2022/11/12 05:48:50;;;;;;;0.10;0.10;;;5.20;99.90;;;;;;5051597;28;20170;-67
2022/11/12 05:51:16;;;;;;;0.03;0.03;;;5.10;99.90;;;;;;5051130;28;20549;-67
2022/11/12 05:53:42;;;;;;;0.00;0.00;;;5.10;99.90;;;;;;5051197;28;20173;-68
2022/11/12 05:56:09;;;;;;;0.00;0.00;;;5.10;99.90;;;;;;5050234;28;20197;-67
2022/11/12 05:58:35;;;;;;;0.00;0.00;;;5.10;99.90;;;;;;5051534;28;20246;-67
2022/11/12 06:01:01;;;;;;;0.00;0.00;;;5.10;99.90;;;;;;5051505;28;20205;-68
2022/11/12 06:03:27;;;;;;;0.20;0.20;;;5.10;99.90;;;;;;5051109;28;20614;-68
2022/11/12 06:05:53;;;;;;;0.10;0.10;;;5.10;99.90;;;;;;5049391;28;20506;-68
2022/11/12 06:08:18;;;;;;;0.00;0.00;;;5.00;99.90;;;;;;5050941;28;20225;-68
2022/11/12 06:10:51;;;;;;;0.00;0.00;;;5.00;99.90;;;;;;5051021;28;20189;-68
2022/11/12 06:13:18;;;;;;;0.00;0.00;;;5.00;99.90;;;;;;5050504;28;20169;-67
2022/11/12 06:15:43;;;;;;;0.00;0.00;;;5.00;99.90;;;;;;5050750;28;20173;-69
2022/11/12 06:18:09;;;;;;;0.30;0.30;;;5.00;99.90;;;;;;5050782;28;20181;-68
2022/11/12 06:20:34;;;;;;;0.00;0.00;;;5.00;99.90;;;;;;5051031;28;20216;-68
2022/11/12 06:23:00;;;;;;;0.35;0.35;;;5.00;99.90;;;;;;5050862;28;20209;-69
2022/11/12 06:25:26;;;;;;;0.00;0.00;;;5.00;99.90;;;;;;5050737;28;20565;-65
2022/11/12 06:27:52;;;;;;;0.00;0.00;;;5.00;99.90;;;;;;5050703;28;20196;-75
2022/11/12 06:30:17;;;;;;;0.08;0.08;;;5.00;99.90;;;;;;5050609;28;20268;-71
2022/11/12 06:32:50;;;;;;;0.00;0.00;;;5.00;99.90;;;;;;5051350;28;20182;-72
2022/11/12 06:35:17;;;;;;;0.00;0.00;;;5.00;99.90;;;;;;5050936;28;20220;-74
2022/11/12 06:37:45;;;;;;;0.00;0.00;;;5.10;99.90;;;;;;5051145;28;20214;-69
2022/11/12 06:40:11;;;;;;;0.20;0.20;;;5.10;99.90;;;;;;5050325;28;20174;-70
2022/11/12 06:42:37;;;;;;;0.00;0.00;;;5.10;99.90;;;;;;5049728;28;20181;-70
2022/11/12 06:45:02;;;;;;;0.38;0.25;;;5.10;99.90;;;;;;5051407;28;20181;-74
2022/11/12 06:47:28;;;;;;;0.15;0.15;;;5.10;99.90;;;;;;5051370;28;20182;-69
2022/11/12 06:49:53;;;;;;;0.00;0.00;;;5.10;99.90;;;;;;5055003;28;20181;-71
2022/11/12 06:52:19;;;;;;;0.00;0.00;;;5.10;99.90;;;;;;5054134;28;20185;-73
2022/11/12 06:54:44;;;;;;;0.00;0.00;;;5.10;99.90;;;;;;5055940;28;20185;-70
2022/11/12 06:57:10;;;;;;;0.00;0.00;;;5.10;99.90;;;;;;5064679;28;20217;-73
2022/11/12 06:59:36;;;;;;;0.00;0.00;;;5.10;99.90;;;;;;5055095;28;20169;-74
2022/11/12 07:02:01;;;;;;;0.08;0.08;;;5.20;99.90;;;;;;5054435;28;20527;-70
2022/11/12 07:04:27;;;;;;;0.00;0.00;;;5.20;99.90;;;;;;5053965;28;20191;-72
2022/11/12 07:06:52;;;;;;;0.55;0.28;;;5.20;99.90;;;;;;5054466;28;20189;-73
2022/11/12 07:09:18;;;;;;;0.00;0.00;;;5.20;99.90;;;;;;5053551;28;20213;-73
2022/11/12 07:11:43;;;;;;;0.10;0.10;;;5.20;99.90;;;;;;5054634;28;20181;-73
2022/11/12 07:14:09;;;;;;;0.30;0.30;;;5.30;99.90;;;;;;5054480;28;20525;-71
2022/11/12 07:16:35;;;;;;;0.00;0.00;;;5.30;99.90;;;;;;5054461;28;20216;-71
2022/11/12 07:19:00;;;;;;;0.00;0.00;;;5.30;99.90;;;;;;5054480;28;20218;-71
2022/11/12 07:21:26;;;;;;;0.00;0.00;;;5.40;99.90;;;;;;5054360;28;20189;-71
2022/11/12 07:23:52;;;;;;;0.00;0.00;;;5.40;99.90;;;;;;5054385;28;20174;-71
2022/11/12 07:26:23;;;;;;;0.00;0.00;;;5.40;99.90;;;;;;5054315;28;20201;-73
2022/11/12 07:28:51;;;;;;;0.10;0.10;;;5.50;99.90;;;;;;5054292;28;20193;-72
2022/11/12 07:31:18;;;;;;;0.00;0.00;;;5.50;99.90;;;;;;5054321;28;20239;-71
2022/11/12 07:33:44;;;;;;;0.00;0.00;;;5.50;99.90;;;;;;5054233;28;20663;-73
2022/11/12 07:36:18;;;;;;;0.00;0.00;;;5.60;99.90;;;;;;5053930;28;20202;-71
2022/11/12 07:38:43;;;;;;;0.30;0.25;;;5.60;99.90;;;;;;5054199;28;20186;-70
2022/11/12 07:41:11;;;;;;;0.47;0.47;;;5.70;99.90;;;;;;5051965;28;20538;-71
2022/11/12 07:43:38;;;;;;;0.10;0.10;;;5.70;99.90;;;;;;5054005;28;20582;-72
2022/11/12 07:46:07;;;;;;;0.00;0.00;;;5.80;99.90;;;;;;5055013;28;20277;-73
2022/11/12 07:48:33;;;;;;;0.20;0.20;;;5.80;99.90;;;;;;5065557;28;20173;-71
2022/11/12 07:51:04;;;;;;;0.00;0.00;;;5.80;99.90;;;;;;5056202;28;20199;-71
2022/11/12 07:53:29;;;;;;;0.08;0.08;;;5.80;99.90;;;;;;5053990;28;20231;-71
2022/11/12 07:55:57;;;;;;;0.00;0.00;;;5.90;99.90;;;;;;5053759;28;20590;-71
2022/11/12 07:58:23;;;;;;;0.08;0.08;;;5.90;99.90;;;;;;5053637;28;20188;-71
2022/11/12 08:00:50;;;;;;;0.15;0.15;;;6.00;99.90;;;;;;5052785;28;20176;-71
2022/11/12 08:03:15;;;;;;;0.00;0.00;;;6.10;99.90;;;;;;5052980;28;20188;-71
2022/11/12 08:05:41;;;;;;;0.00;0.00;;;6.20;99.90;;;;;;5053411;28;20182;-71
2022/11/12 08:08:06;;;;;;;0.28;0.28;;;6.20;99.90;;;;;;5052263;28;20699;-71
2022/11/12 08:10:32;;;;;;;0.00;0.00;;;6.30;99.90;;;;;;5053311;28;20329;-71
2022/11/12 08:12:57;;;;;;;0.00;0.00;;;6.40;99.90;;;;;;5052685;28;20177;-70
2022/11/12 08:15:23;;;;;;;0.00;0.00;;;6.50;99.90;;;;;;5052931;28;20509;-71
2022/11/12 08:17:49;;;;;;;0.10;0.10;;;6.60;99.90;;;;;;5052403;28;20665;-72
2022/11/12 08:20:14;;;;;;;0.00;0.00;;;6.70;99.90;;;;;;5052593;28;20649;-71
2022/11/12 08:22:40;;;;;;;0.10;0.10;;;6.80;99.90;;;;;;5052340;28;20378;-71
2022/11/12 08:25:06;;;;;;;0.10;0.10;;;6.90;99.90;;;;;;5052555;28;20204;-72
2022/11/12 08:27:32;;;;;;;0.00;0.00;;;7.10;99.90;;;;;;5052329;28;20209;-72
2022/11/12 08:29:58;;;;;;;0.10;0.10;;;7.20;99.90;;;;;;5052157;28;20209;-71
2022/11/12 08:32:23;;;;;;;0.00;0.00;;;7.30;99.90;;;;;;5051149;28;20177;-71
2022/11/12 08:34:49;;;;;;;0.15;0.10;;;7.30;99.90;;;;;;5052688;28;20178;-71
2022/11/12 08:37:14;;;;;;;0.00;0.00;;;7.40;99.90;;;;;;5052399;28;20217;-71
2022/11/12 08:39:40;;;;;;;0.00;0.00;;;7.50;99.90;;;;;;5051243;28;20181;-68
2022/11/12 08:42:05;;;;;;;0.20;0.20;;;7.50;99.90;;;;;;5068874;28;20187;-68
2022/11/12 08:44:31;;;;;;;0.00;0.00;;;7.50;99.90;;;;;;5058801;28;20536;-67
2022/11/12 08:46:58;;;;;;;0.00;0.00;;;7.70;99.90;;;;;;5052178;28;20204;-68
2022/11/12 08:49:24;;;;;;;0.50;0.32;;;7.90;99.90;;;;;;5052116;28;20231;-71
2022/11/12 08:51:49;;;;;;;0.00;0.00;;;8.00;99.90;;;;;;5052527;28;20185;-70
2022/11/12 08:54:15;;;;;;;0.00;0.00;;;8.10;99.90;;;;;;5050890;28;20277;-71
2022/11/12 08:56:40;;;;;;;0.00;0.00;;;8.20;99.90;;;;;;5052176;28;20217;-71
2022/11/12 08:59:06;;;;;;;0.00;0.00;;;8.30;99.90;;;;;;5052071;28;20675;-71
2022/11/12 09:01:32;;;;;;;0.10;0.10;;;8.30;99.90;;;;;;5052425;28;20212;-71
2022/11/12 09:03:57;;;;;;;0.10;0.10;;;8.30;99.90;;;;;;5051796;28;20188;-71
2022/11/12 09:06:23;;;;;;;0.03;0.03;;;8.40;99.90;;;;;;5052264;28;20192;-71
2022/11/12 09:08:48;;;;;;;0.00;0.00;;;8.50;99.90;;;;;;5051850;28;20224;-72
2022/11/12 09:11:14;;;;;;;0.00;0.00;;;8.50;99.90;;;;;;5050873;28;20268;-71
2022/11/12 09:13:39;;;;;;;0.70;0.20;;;8.70;99.90;;;;;;5051994;28;20197;-72
2022/11/12 09:16:06;;;;;;;0.05;0.05;;;8.70;99.90;;;;;;5051723;28;20197;-72
2022/11/12 09:18:33;;;;;;;0.22;0.22;;;8.70;99.90;;;;;;5052051;28;20181;-71
2022/11/12 09:21:03;;;;;;;0.00;0.00;;;8.70;99.90;;;;;;5050027;28;20672;-71
2022/11/12 09:23:29;;;;;;;0.00;0.00;;;8.60;99.90;;;;;;5054359;28;20624;-71
2022/11/12 09:25:56;;;;;;;0.00;0.00;;;8.70;99.90;;;;;;5061421;28;20205;-70
2022/11/12 09:28:22;;;;;;;0.00;0.00;;;8.60;99.90;;;;;;5051801;28;20173;-67
2022/11/12 09:30:50;;;;;;;0.10;0.10;;;8.60;99.90;;;;;;5051624;28;20252;-70
2022/11/12 09:33:18;;;;;;;0.15;0.15;;;8.60;99.90;;;;;;5051234;28;20216;-70
2022/11/12 09:35:45;;;;;;;0.13;0.13;;;8.70;99.90;;;;;;5051018;28;20534;-64
2022/11/12 09:38:11;;;;;;;0.00;0.00;;;8.90;99.90;;;;;;5051632;28;20276;-70
2022/11/12 09:40:51;;;;;;;0.00;0.00;;;9.00;99.90;;;;;;5051063;28;20731;-67
2022/11/12 09:43:29;;;;;;;0.00;0.00;;;9.00;99.90;;;;;;5051109;28;20629;-68
2022/11/12 09:46:33;;;;;;;0.05;0.05;;;9.20;99.90;;;;;;5050789;28;20652;-69
2022/11/12 09:49:05;;;;;;;0.10;0.10;;;9.30;99.90;;;;;;5051220;28;20203;-70
2022/11/12 09:51:46;;;;;;;0.10;0.10;;;9.30;99.90;;;;;;5051627;28;20181;-70
2022/11/12 09:54:26;;;;;;;0.22;0.22;;;9.40;99.90;;;;;;5050046;28;20637;-67
2022/11/12 09:56:53;;;;;;;0.20;0.20;;;9.50;99.90;;;;;;5050937;28;20699;-66
2022/11/12 09:59:20;;;;;;;0.00;0.00;;;9.70;99.90;;;;;;5051564;28;20211;-64
2022/11/12 10:02:31;;;;;;;0.00;0.00;;;9.80;99.90;;;;;;5051613;28;20174;-66
2022/11/12 10:05:11;;;;;;;0.10;0.10;;;9.90;99.90;;;;;;5050505;28;20193;-69
2022/11/12 10:07:51;;;;;;;0.20;0.20;;;10.00;99.90;;;;;;5050537;28;20563;-69
2022/11/12 10:10:40;;;;;;;0.50;0.50;;;10.10;99.90;;;;;;5051303;28;20508;-66
2022/11/12 10:13:25;;;;;;;0.00;0.00;;;10.20;99.90;;;;;;5050688;28;20692;-65
2022/11/12 10:16:42;;;;;;;0.00;0.00;;;10.40;99.90;;;;;;5050018;28;20269;-68
2022/11/12 10:19:18;;;;;;;0.00;0.00;;;10.50;99.90;;;;;;5050914;28;20224;-70
2022/11/12 10:22:01;;;;;;;0.00;0.00;;;10.60;99.90;;;;;;5049747;28;20186;-69
2022/11/12 10:24:33;;;;;;;0.00;0.00;;;10.70;99.90;;;;;;5050845;28;20512;-67
2022/11/12 10:27:01;;;;;;;0.30;0.30;;;10.80;99.90;;;;;;5054820;28;20286;-68
2022/11/12 10:29:42;;;;;;;0.00;0.00;;;10.80;99.90;;;;;;5054849;28;20181;-69
2022/11/12 10:32:14;;;;;;;0.00;0.00;;;10.90;99.90;;;;;;5043583;28;20548;-66
2022/11/12 10:34:40;;;;;;;0.15;0.15;;;11.00;99.90;;;;;;5051645;28;20197;-71
2022/11/12 10:37:13;;;;;;;0.00;0.00;;;11.10;99.90;;;;;;5054905;28;20233;-69
2022/11/12 10:39:46;;;;;;;0.00;0.00;;;11.20;99.90;;;;;;5040399;28;20182;-67
2022/11/12 10:42:17;;;;;;;0.00;0.00;;;11.30;99.90;;;;;;5055071;28;20256;-70
2022/11/12 10:44:44;;;;;;;0.00;0.00;;;11.40;99.90;;;;;;5054653;28;20235;-65
2022/11/12 10:47:19;;;;;;;0.00;0.00;;;11.50;99.90;;;;;;5053820;28;20181;-67
2022/11/12 10:50:11;;;;;;;0.08;0.08;;;11.50;99.90;;;;;;5035081;28;20178;-68
2022/11/12 10:52:37;;;;;;;0.00;0.00;;;11.60;99.90;;;;;;5050447;28;20197;-69
2022/11/12 10:55:21;;;;;;;0.10;0.10;;;11.60;99.90;;;;;;5052797;28;20228;-68
2022/11/12 10:58:18;;;;;;;0.10;0.10;;;11.70;99.90;;;;;;5041487;28;20224;-66
2022/11/12 11:00:59;;;;;;;0.00;0.00;;;11.70;99.90;;;;;;5053609;28;20173;-67
2022/11/12 11:03:33;;;;;;;0.00;0.00;;;11.80;99.90;;;;;;5053619;28;20178;-67
2022/11/12 11:06:04;;;;;;;0.00;0.00;;;11.90;99.90;;;;;;5053872;28;20263;-68
2022/11/12 11:08:48;;;;;;;0.00;0.00;;;11.90;99.90;;;;;;5053308;28;20221;-68
2022/11/12 11:11:18;;;;;;;0.00;0.00;;;12.10;99.90;;;;;;5054327;28;20178;-68
2022/11/12 11:13:45;;;;;;;0.10;0.10;;;12.30;99.90;;;;;;5053982;28;20316;-68
2022/11/12 11:16:26;;;;;;;0.17;0.17;;;12.30;99.90;;;;;;5054260;28;20282;-67
2022/11/12 11:18:58;;;;;;;0.00;0.00;;;12.30;99.90;;;;;;5052597;28;20177;-69
2022/11/12 11:21:27;;;;;;;0.05;0.05;;;12.40;99.90;;;;;;5053179;28;20173;-68
2022/11/12 11:24:12;;;;;;;0.00;0.00;;;12.40;99.90;;;;;;5053151;28;20730;-69
2022/11/12 11:26:46;;;;;;;0.00;0.00;;;12.30;99.90;;;;;;5043727;28;20169;-67
2022/11/12 11:29:36;;;;;;;0.00;0.00;;;12.30;99.90;;;;;;5053944;28;20184;-67
2022/11/12 11:32:10;;;;;;;0.00;0.00;;;12.30;99.90;;;;;;5041080;28;20173;-67
2022/11/12 11:34:59;;;;;;;0.00;0.00;;;12.50;99.90;;;;;;5052558;28;20253;-67
2022/11/12 11:37:29;;;;;;;0.10;0.10;;;12.50;99.90;;;;;;5024071;28;20229;-68
2022/11/12 11:40:02;;;;;;;0.00;0.00;;;12.40;99.90;;;;;;5051727;28;20196;-69
2022/11/12 11:43:00;;;;;;;0.00;0.00;;;12.50;99.90;;;;;;5053526;28;20588;-67
2022/11/12 11:45:56;;;;;;;0.00;0.00;;;12.50;99.90;;;;;;5053492;28;20590;-67
2022/11/12 11:48:54;;;;;;;0.57;0.57;;;12.50;99.90;;;;;;5052787;28;20200;-67
2022/11/12 11:51:43;;;;;;;0.10;0.10;;;12.50;99.90;;;;;;5027718;28;20208;-67
2022/11/12 11:54:33;;;;;;;0.30;0.30;;;12.60;99.90;;;;;;5053355;28;20568;-67
2022/11/12 11:57:07;;;;;;;0.40;0.40;;;12.60;99.90;;;;;;5053074;28;20209;-67
2022/11/12 12:00:10;;;;;;;0.60;0.35;;;12.60;99.90;;;;;;5053765;28;20205;-67
2022/11/12 12:03:01;;;;;;;0.43;0.20;;;12.60;99.90;;;;;;5053297;28;20238;-67
2022/11/12 12:05:40;;;;;;;0.00;0.00;;;12.60;99.90;;;;;;5053648;28;20186;-67
2022/11/12 12:08:11;;;;;;;0.17;0.17;;;12.40;99.90;;;;;;5053002;28;20217;-67
2022/11/12 12:11:01;;;;;;;0.20;0.20;;;12.40;99.90;;;;;;5053565;28;20643;-67
2022/11/12 12:14:01;;;;;;;0.00;0.00;;;12.40;99.90;;;;;;5033615;28;20178;-67
2022/11/12 12:16:51;;;;;;;0.30;0.22;;;12.60;99.90;;;;;;5052069;28;20224;-67
2022/11/12 12:19:40;;;;;;;0.00;0.00;;;12.60;99.90;;;;;;5053273;28;20195;-67
2022/11/12 12:22:14;;;;;;;0.00;0.00;;;12.70;99.90;;;;;;5052675;28;20178;-67
2022/11/12 12:24:54;;;;;;;0.00;0.00;;;12.60;99.90;;;;;;5052791;28;20242;-67
2022/11/12 12:27:29;;;;;;;0.00;0.00;;;12.60;99.90;;;;;;5053023;28;20256;-67
2022/11/12 12:30:05;;;;;;;0.03;0.03;;;12.60;99.90;;;;;;5037081;28;20204;-67
2022/11/12 12:32:44;;;;;;;0.00;0.00;;;12.50;99.90;;;;;;5053204;28;20180;-67
2022/11/12 12:35:30;;;;;;;0.03;0.03;;;12.50;99.90;;;;;;5052690;28;20540;-67
2022/11/12 12:37:55;;;;;;;0.00;0.00;;;12.50;99.90;;;;;;5052915;28;20219;-67
2022/11/12 12:40:38;;;;;;;0.00;0.00;;;12.50;99.90;;;;;;5052587;28;20173;-67
2022/11/12 12:43:13;;;;;;;0.00;0.00;;;12.40;99.90;;;;;;5052986;28;20555;-67
2022/11/12 12:45:41;;;;;;;0.00;0.00;;;12.30;99.90;;;;;;5050994;28;20533;-67
2022/11/12 12:48:21;;;;;;;0.10;0.10;;;12.30;99.90;;;;;;5052797;28;20248;-67
2022/11/12 12:50:48;;;;;;;0.08;0.05;;;12.20;99.90;;;;;;5052530;28;20216;-67
2022/11/12 12:53:25;;;;;;;0.40;0.20;;;12.20;99.90;;;;;;5052398;28;20189;-67
2022/11/12 12:56:18;;;;;;;0.00;0.00;;;12.30;99.90;;;;;;5052451;28;20227;-67
2022/11/12 12:58:47;;;;;;;0.00;0.00;;;12.30;99.90;;;;;;5043997;28;20244;-67
2022/11/12 13:01:21;;;;;;;0.63;0.10;;;12.20;99.90;;;;;;5052276;28;20181;-67
2022/11/12 13:03:57;;;;;;;0.25;0.25;;;12.20;99.90;;;;;;5052602;28;20173;-67
2022/11/12 13:06:51;;;;;;;0.10;0.10;;;12.20;99.90;;;;;;5052123;28;20189;-67
2022/11/12 13:09:16;;;;;;;0.00;0.00;;;12.20;99.90;;;;;;5052293;28;20284;-67
2022/11/12 13:14:35;;;;;;;0.08;0.08;;;12.40;99.90;;;;;;5052461;28;20235;-67
2022/11/12 13:17:07;;;;;;;0.10;0.10;;;12.40;99.90;;;;;;5051865;28;20223;-67
2022/11/12 13:19:33;;;;;;;0.10;0.10;;;12.30;99.90;;;;;;5052296;28;20176;-67
2022/11/12 13:22:17;;;;;;;0.10;0.10;;;12.30;99.90;;;;;;5051840;28;20200;-67
2022/11/12 13:25:10;;;;;;;0.10;0.10;;;12.30;99.90;;;;;;5051998;28;20188;-67
2022/11/12 13:27:44;;;;;;;0.05;0.05;;;12.40;99.90;;;;;;5052143;28;20537;-67
2022/11/12 13:30:33;;;;;;;0.00;0.00;;;12.20;99.90;;;;;;5051952;28;20192;-67
2022/11/12 13:33:01;;;;;;;0.00;0.00;;;12.00;99.90;;;;;;5051799;28;20184;-67
2022/11/12 13:35:36;;;;;;;0.00;0.00;;;12.00;99.90;;;;;;5051915;28;20216;-67